Time;durP1;ratioP1;P1;durP2;ratioP2;P2;SDS_P1;SDS_P2;PMS_P1;PMS_P2;Temp;Humidity;BMP_temperature;BMP_pressure;BME280_temperature;BME280_humidity;BME280_pressure;Samples;Min_cycle;Max_cycle;Signal;HPM_P1;HPM_P2
2021/12/26 00:00:46;;;;;;;7.95;2.35;;;28.40;99.90;;;;;;5092556;28;20039;-77
2021/12/26 00:03:13;;;;;;;7.38;2.90;;;28.70;99.80;;;;;;5104588;28;20546;-78
2021/12/26 00:05:41;;;;;;;6.97;2.72;;;29.00;99.30;;;;;;5105537;27;20041;-78
2021/12/26 00:08:08;;;;;;;11.45;2.80;;;29.00;98.80;;;;;;5103895;28;20036;-79
2021/12/26 00:10:35;;;;;;;5.45;2.40;;;29.00;98.90;;;;;;5102463;28;20055;-76
2021/12/26 00:13:04;;;;;;;8.98;3.90;;;29.10;98.90;;;;;;5101937;28;20069;-78
2021/12/26 00:15:32;;;;;;;3.58;2.20;;;29.10;98.40;;;;;;5105282;28;20494;-76
2021/12/26 00:17:59;;;;;;;4.25;2.13;;;29.20;98.80;;;;;;5104854;28;20096;-76
2021/12/26 00:20:27;;;;;;;5.78;2.08;;;29.20;98.80;;;;;;5104547;28;20607;-78
2021/12/26 00:22:54;;;;;;;5.47;2.85;;;29.30;98.90;;;;;;5099261;28;20059;-78
2021/12/26 00:25:22;;;;;;;3.80;1.83;;;29.40;98.80;;;;;;5099888;28;20031;-80
2021/12/26 00:27:49;;;;;;;7.10;2.20;;;29.70;98.60;;;;;;5100673;28;21493;-78
2021/12/26 00:30:19;;;;;;;4.50;2.45;;;29.90;97.80;;;;;;5102878;28;20028;-77
2021/12/26 00:32:47;;;;;;;5.03;2.28;;;30.10;97.70;;;;;;5088923;28;20111;-78
2021/12/26 00:35:17;;;;;;;5.60;2.28;;;30.30;97.60;;;;;;5104893;28;20089;-78
2021/12/26 00:37:46;;;;;;;6.47;2.38;;;30.50;96.90;;;;;;5079460;28;20382;-78
2021/12/26 00:40:16;;;;;;;8.52;2.85;;;30.20;97.30;;;;;;5104022;28;20047;-85
2021/12/26 00:42:49;;;;;;;3.28;1.52;;;30.40;97.70;;;;;;5108791;27;20062;-78
2021/12/26 00:45:18;;;;;;;9.13;2.40;;;30.40;97.10;;;;;;5097938;28;20023;-78
2021/12/26 00:47:46;;;;;;;4.75;2.05;;;30.50;97.00;;;;;;5109514;28;20036;-77
2021/12/26 00:50:17;;;;;;;6.45;2.30;;;30.90;97.30;;;;;;5110482;28;20104;-77
2021/12/26 00:52:44;;;;;;;5.65;2.05;;;31.30;96.40;;;;;;5108870;28;20054;-77
2021/12/26 00:55:15;;;;;;;6.53;2.00;;;31.10;96.00;;;;;;5109569;28;20397;-79
2021/12/26 00:57:42;;;;;;;4.60;1.42;;;31.40;95.70;;;;;;5105300;28;20175;-77
2021/12/26 01:00:19;;;;;;;5.10;1.98;;;31.60;95.40;;;;;;5109289;28;20501;-77
2021/12/26 01:02:47;;;;;;;4.95;1.90;;;31.40;95.50;;;;;;5106522;28;20049;-77
2021/12/26 01:05:15;;;;;;;3.83;2.20;;;31.30;95.40;;;;;;5106045;28;20092;-78
2021/12/26 01:08:03;;;;;;;4.85;2.00;;;31.20;95.30;;;;;;5103141;28;20028;-78
2021/12/26 01:10:54;;;;;;;3.85;2.47;;;30.70;95.70;;;;;;5100947;28;20015;-80
2021/12/26 01:13:29;;;;;;;4.93;2.00;;;30.40;95.50;;;;;;5105032;28;20055;-79
2021/12/26 01:16:00;;;;;;;3.28;1.50;;;30.30;95.70;;;;;;5103499;28;20120;-80
2021/12/26 01:18:31;;;;;;;9.13;2.53;;;30.40;95.80;;;;;;5099325;28;20122;-82
2021/12/26 01:21:15;;;;;;;7.72;2.53;;;30.40;95.60;;;;;;5099810;28;20405;-80
2021/12/26 01:23:44;;;;;;;5.20;2.47;;;30.10;96.00;;;;;;5105613;28;20506;-80
2021/12/26 01:26:12;;;;;;;4.53;2.38;;;30.00;96.20;;;;;;5105168;28;20677;-80
2021/12/26 01:28:40;;;;;;;5.40;2.03;;;29.90;96.40;;;;;;5107951;28;20208;-81
2021/12/26 01:31:08;;;;;;;9.48;2.60;;;30.00;96.50;;;;;;5107735;28;20072;-80
2021/12/26 01:33:35;;;;;;;6.35;2.90;;;29.80;96.80;;;;;;5109677;28;20035;-83
2021/12/26 01:36:03;;;;;;;5.05;2.05;;;29.80;96.30;;;;;;5104650;28;20035;-79
2021/12/26 01:38:31;;;;;;;5.30;2.35;;;29.70;96.90;;;;;;5106782;28;20030;-79
2021/12/26 01:41:01;;;;;;;4.28;2.05;;;29.60;96.10;;;;;;5109558;28;20048;-78
2021/12/26 01:43:32;;;;;;;4.18;2.65;;;29.50;96.10;;;;;;5106357;28;20024;-80
2021/12/26 01:45:59;;;;;;;6.55;2.28;;;29.50;96.70;;;;;;5104995;27;20040;-86
2021/12/26 01:48:27;;;;;;;3.92;2.05;;;29.40;96.80;;;;;;5109220;28;20074;-79
2021/12/26 01:50:56;;;;;;;6.90;2.60;;;29.40;96.90;;;;;;5107361;27;20024;-80
2021/12/26 01:53:26;;;;;;;5.13;1.75;;;29.50;96.50;;;;;;5112836;28;20034;-82
2021/12/26 01:55:54;;;;;;;6.80;2.47;;;29.50;96.30;;;;;;5109628;28;20042;-79
2021/12/26 01:58:26;;;;;;;4.95;1.92;;;29.70;96.10;;;;;;5108355;28;20060;-78
2021/12/26 02:01:00;;;;;;;3.22;1.63;;;30.20;95.60;;;;;;5110806;28;20381;-78
2021/12/26 02:03:28;;;;;;;4.80;1.73;;;30.90;95.00;;;;;;5109059;28;20030;-78
2021/12/26 02:05:56;;;;;;;4.72;2.25;;;31.70;94.30;;;;;;5102320;28;20023;-77
2021/12/26 02:08:23;;;;;;;6.22;3.05;;;31.70;93.70;;;;;;5105673;28;20072;-78
2021/12/26 02:10:51;;;;;;;6.30;2.33;;;31.50;93.30;;;;;;5107736;28;20470;-80
2021/12/26 02:13:19;;;;;;;6.68;2.20;;;31.20;94.30;;;;;;5112275;28;20028;-77
2021/12/26 02:15:46;;;;;;;5.07;1.70;;;31.00;93.50;;;;;;5110827;28;20381;-79
2021/12/26 02:18:14;;;;;;;7.03;1.88;;;30.80;93.80;;;;;;5109481;27;20166;-79
2021/12/26 02:23:17;;;;;;;7.10;2.15;;;30.40;94.30;;;;;;5108449;27;20069;-79
2021/12/26 02:28:27;;;;;;;4.07;1.70;;;30.60;94.00;;;;;;5106525;28;20371;-77
2021/12/26 02:30:57;;;;;;;5.38;3.17;;;30.90;93.40;;;;;;5108097;28;20063;-77
2021/12/26 02:33:24;;;;;;;5.60;2.38;;;30.70;93.90;;;;;;5104972;27;20015;-79
2021/12/26 02:35:53;;;;;;;5.40;2.15;;;30.60;93.90;;;;;;5102416;28;20074;-79
2021/12/26 02:38:20;;;;;;;4.97;1.70;;;30.30;94.00;;;;;;5105275;28;20034;-79
2021/12/26 02:40:50;;;;;;;5.10;2.30;;;30.00;94.40;;;;;;5104288;27;20039;-77
2021/12/26 02:43:19;;;;;;;4.32;2.17;;;29.90;94.50;;;;;;5104485;28;20031;-78
2021/12/26 02:45:47;;;;;;;5.45;2.05;;;30.00;94.60;;;;;;5104935;27;20027;-78
2021/12/26 02:48:16;;;;;;;5.97;2.17;;;29.80;94.30;;;;;;5101195;28;20382;-76
2021/12/26 02:50:46;;;;;;;3.25;1.75;;;29.70;94.70;;;;;;5104627;28;20484;-76
2021/12/26 02:53:20;;;;;;;2.42;2.03;;;29.60;95.50;;;;;;5104951;28;20486;-78
2021/12/26 02:55:55;;;;;;;5.05;2.03;;;29.40;95.70;;;;;;5105758;28;20024;-79
2021/12/26 02:58:26;;;;;;;4.75;1.50;;;29.30;95.90;;;;;;5106015;27;20054;-78
2021/12/26 03:00:55;;;;;;;4.28;1.58;;;29.10;96.00;;;;;;5101028;28;20401;-76
2021/12/26 03:03:23;;;;;;;5.43;2.25;;;29.00;96.30;;;;;;5106204;28;20062;-75
2021/12/26 03:06:06;;;;;;;7.00;1.60;;;28.80;96.30;;;;;;5102287;28;20123;-77
2021/12/26 03:08:33;;;;;;;5.75;1.42;;;28.60;96.50;;;;;;5100012;28;20053;-75
2021/12/26 03:11:01;;;;;;;5.25;1.52;;;28.60;96.90;;;;;;5105490;28;20024;-77
2021/12/26 03:13:29;;;;;;;5.65;2.00;;;28.40;97.00;;;;;;5104965;28;20430;-74
2021/12/26 03:15:57;;;;;;;6.38;1.67;;;28.20;97.10;;;;;;5107079;28;20028;-74
2021/12/26 03:18:27;;;;;;;2.75;1.95;;;28.10;97.40;;;;;;5103170;28;20058;-74
2021/12/26 03:20:55;;;;;;;8.25;2.22;;;28.10;97.70;;;;;;5082643;28;20035;-76
2021/12/26 03:23:25;;;;;;;3.78;1.35;;;28.00;97.80;;;;;;5099044;28;20019;-75
2021/12/26 03:25:59;;;;;;;4.20;1.65;;;27.90;97.90;;;;;;5111051;28;20023;-77
2021/12/26 03:28:28;;;;;;;4.40;1.40;;;27.80;98.00;;;;;;5107998;28;20069;-82
2021/12/26 03:30:57;;;;;;;7.80;1.80;;;27.80;98.10;;;;;;5105904;27;20051;-81
2021/12/26 03:33:25;;;;;;;3.28;1.30;;;27.70;98.30;;;;;;5111966;28;20024;-81
2021/12/26 03:35:53;;;;;;;2.97;1.42;;;27.60;98.40;;;;;;5105403;28;20107;-81
2021/12/26 03:38:22;;;;;;;4.30;1.92;;;27.40;98.70;;;;;;5106751;28;20032;-77
2021/12/26 03:40:50;;;;;;;4.55;1.30;;;27.30;98.80;;;;;;5108840;28;20051;-77
2021/12/26 03:43:18;;;;;;;2.90;1.65;;;27.20;99.00;;;;;;5109590;28;20028;-81
2021/12/26 03:45:50;;;;;;;4.80;1.50;;;27.10;99.20;;;;;;5109104;28;20420;-80
2021/12/26 03:48:20;;;;;;;3.45;1.40;;;27.10;99.20;;;;;;5098182;28;20027;-79
2021/12/26 03:50:47;;;;;;;4.68;1.88;;;27.10;99.20;;;;;;5088148;28;20034;-79
2021/12/26 03:53:15;;;;;;;4.60;1.73;;;27.10;99.10;;;;;;5107398;28;20058;-79
2021/12/26 03:55:44;;;;;;;4.70;1.73;;;27.10;99.20;;;;;;5104564;28;20041;-79
2021/12/26 03:58:11;;;;;;;3.58;1.40;;;27.10;99.20;;;;;;5107560;28;20027;-79
2021/12/26 04:00:42;;;;;;;4.55;1.75;;;27.00;99.50;;;;;;5106553;28;20470;-78
2021/12/26 04:03:10;;;;;;;6.50;2.05;;;26.90;99.90;;;;;;5088749;28;20036;-77
2021/12/26 04:05:37;;;;;;;8.15;2.35;;;26.70;99.90;;;;;;5105270;28;20039;-81
2021/12/26 04:08:05;;;;;;;4.18;1.40;;;26.50;99.90;;;;;;5106220;28;20032;-78
2021/12/26 04:10:33;;;;;;;7.32;1.45;;;26.30;99.90;;;;;;5104775;28;20118;-77
2021/12/26 04:13:00;;;;;;;3.50;1.60;;;26.30;99.90;;;;;;5110007;28;20016;-79
2021/12/26 04:15:28;;;;;;;5.22;1.75;;;26.20;99.90;;;;;;5108894;28;20414;-79
2021/12/26 04:17:57;;;;;;;4.38;1.58;;;26.40;99.90;;;;;;5102730;28;20024;-77
2021/12/26 04:20:28;;;;;;;5.28;1.38;;;26.40;99.90;;;;;;5100265;28;20032;-78
2021/12/26 04:22:57;;;;;;;5.40;1.40;;;26.50;99.90;;;;;;5099352;27;20032;-77
2021/12/26 04:25:25;;;;;;;5.65;2.03;;;26.50;99.90;;;;;;5105499;28;20028;-77
2021/12/26 04:27:53;;;;;;;4.22;1.33;;;26.50;99.90;;;;;;5098496;28;20031;-77
2021/12/26 04:30:22;;;;;;;5.28;2.20;;;26.60;99.90;;;;;;5110230;28;20031;-77
2021/12/26 04:32:50;;;;;;;4.18;1.83;;;26.60;99.90;;;;;;5098596;28;20618;-76
2021/12/26 04:35:18;;;;;;;2.65;1.42;;;26.70;99.90;;;;;;5110698;28;20054;-78
2021/12/26 04:37:46;;;;;;;6.35;1.98;;;26.80;99.90;;;;;;5091487;28;20024;-78
2021/12/26 04:40:15;;;;;;;4.35;1.65;;;27.00;99.90;;;;;;5105240;28;20066;-78
2021/12/26 04:42:45;;;;;;;2.95;1.33;;;27.20;99.90;;;;;;5104734;28;20195;-77
2021/12/26 04:45:12;;;;;;;3.85;1.63;;;27.20;99.90;;;;;;5108930;28;20050;-77
2021/12/26 04:47:41;;;;;;;4.20;1.55;;;27.40;99.90;;;;;;5109329;28;20472;-78
2021/12/26 04:50:12;;;;;;;2.78;1.20;;;27.60;99.90;;;;;;5094156;28;20119;-78
2021/12/26 04:52:43;;;;;;;4.75;1.42;;;27.60;99.90;;;;;;5107805;28;20024;-77
2021/12/26 04:55:13;;;;;;;2.95;1.65;;;27.90;99.90;;;;;;5097677;28;20052;-76
2021/12/26 04:57:40;;;;;;;5.72;1.85;;;28.50;99.90;;;;;;5115172;28;20377;-78
2021/12/26 05:00:11;;;;;;;2.72;1.38;;;28.90;98.70;;;;;;5111375;28;20065;-77
2021/12/26 05:02:39;;;;;;;4.07;1.90;;;28.80;98.40;;;;;;5104305;28;20027;-77
2021/12/26 05:05:09;;;;;;;5.93;1.95;;;28.70;99.30;;;;;;5113139;28;20083;-78
2021/12/26 05:07:37;;;;;;;5.70;1.30;;;28.70;98.90;;;;;;5113413;28;20019;-76
2021/12/26 05:10:06;;;;;;;3.13;1.50;;;28.60;98.70;;;;;;5107621;28;20016;-77
2021/12/26 05:12:36;;;;;;;3.47;1.88;;;28.30;98.90;;;;;;5110564;28;20118;-76
2021/12/26 05:15:05;;;;;;;4.40;1.52;;;28.00;99.50;;;;;;5109181;28;20486;-77
2021/12/26 05:17:32;;;;;;;8.02;2.47;;;27.60;99.60;;;;;;5109550;28;20027;-77
2021/12/26 05:20:00;;;;;;;3.97;1.88;;;27.40;99.90;;;;;;5108694;28;20032;-76
2021/12/26 05:22:27;;;;;;;4.88;1.90;;;27.20;99.90;;;;;;5112834;28;20485;-80
2021/12/26 05:24:54;;;;;;;8.63;2.75;;;26.90;99.90;;;;;;5113626;28;20114;-75
2021/12/26 05:27:22;;;;;;;4.03;2.67;;;26.70;99.90;;;;;;5112617;28;20012;-76
2021/12/26 05:29:49;;;;;;;7.70;2.58;;;26.60;99.90;;;;;;5100823;28;20032;-75
2021/12/26 05:32:17;;;;;;;7.38;2.78;;;26.70;99.90;;;;;;5108185;28;20051;-75
2021/12/26 05:34:45;;;;;;;3.35;1.90;;;26.70;99.90;;;;;;5103865;28;20032;-78
2021/12/26 05:37:12;;;;;;;6.03;2.83;;;26.60;99.90;;;;;;5095373;28;20023;-78
2021/12/26 05:39:40;;;;;;;5.93;2.53;;;26.50;99.90;;;;;;5111800;28;20039;-76
2021/12/26 05:42:09;;;;;;;9.75;2.50;;;26.30;99.90;;;;;;5112418;28;20111;-78
2021/12/26 05:44:37;;;;;;;5.28;1.90;;;26.20;99.90;;;;;;5094193;28;20431;-77
2021/12/26 05:47:04;;;;;;;9.57;2.67;;;26.10;99.90;;;;;;5112320;28;20020;-78
2021/12/26 05:49:33;;;;;;;7.60;2.35;;;26.00;99.90;;;;;;5104902;28;20084;-77
2021/12/26 05:52:00;;;;;;;9.88;3.65;;;25.90;99.90;;;;;;5105615;28;20057;-79
2021/12/26 05:54:28;;;;;;;10.07;2.72;;;26.00;99.90;;;;;;5108069;28;20095;-78
2021/12/26 05:56:55;;;;;;;6.88;2.35;;;26.00;99.90;;;;;;5111758;28;20099;-76
2021/12/26 05:59:23;;;;;;;9.10;2.90;;;26.10;99.90;;;;;;5110554;27;20037;-76
2021/12/26 06:01:50;;;;;;;7.93;2.90;;;26.20;99.90;;;;;;5108966;27;20028;-79
2021/12/26 06:04:19;;;;;;;10.73;3.55;;;26.10;99.90;;;;;;5108110;28;20067;-78
2021/12/26 06:06:47;;;;;;;7.90;3.53;;;26.00;99.90;;;;;;5100251;28;20032;-78
2021/12/26 06:09:14;;;;;;;6.18;2.92;;;25.90;99.90;;;;;;5111490;28;20501;-78
2021/12/26 06:11:41;;;;;;;9.05;3.03;;;25.70;99.90;;;;;;5110474;28;20040;-78
2021/12/26 06:14:09;;;;;;;5.55;2.70;;;25.60;99.90;;;;;;5106308;27;20371;-80
2021/12/26 06:16:36;;;;;;;10.48;3.35;;;25.30;99.90;;;;;;5109652;27;20465;-81
2021/12/26 06:19:04;;;;;;;7.35;3.33;;;25.20;99.90;;;;;;5110274;27;20023;-81
2021/12/26 06:21:31;;;;;;;7.15;2.30;;;25.10;99.90;;;;;;5108462;28;20030;-82
2021/12/26 06:23:59;;;;;;;7.30;2.45;;;25.10;99.90;;;;;;5099847;28;20038;-80
2021/12/26 06:26:28;;;;;;;6.80;2.53;;;24.90;99.90;;;;;;5106879;28;20088;-81
2021/12/26 06:28:56;;;;;;;7.55;3.55;;;24.70;99.90;;;;;;5114053;28;20047;-82
2021/12/26 06:31:24;;;;;;;7.18;3.60;;;24.50;99.90;;;;;;5108281;28;20036;-81
2021/12/26 06:33:51;;;;;;;6.50;4.03;;;24.30;99.90;;;;;;5094960;28;20024;-81
2021/12/26 06:36:18;;;;;;;6.65;4.63;;;24.10;99.90;;;;;;5102717;28;20085;-81
2021/12/26 06:38:47;;;;;;;7.30;4.55;;;24.00;99.90;;;;;;5104603;27;20059;-77
2021/12/26 06:41:17;;;;;;;8.38;4.95;;;23.80;99.90;;;;;;5110907;28;20039;-78
2021/12/26 06:43:46;;;;;;;8.65;6.57;;;23.80;99.90;;;;;;5108601;28;20040;-78
2021/12/26 06:46:15;;;;;;;7.03;5.00;;;23.90;99.90;;;;;;5110078;28;20031;-78
2021/12/26 06:48:43;;;;;;;5.18;3.35;;;23.80;99.90;;;;;;5112152;28;20031;-79
2021/12/26 06:51:10;;;;;;;4.30;3.47;;;23.70;99.90;;;;;;5109565;28;20097;-76
2021/12/26 06:53:38;;;;;;;7.63;4.25;;;23.60;99.90;;;;;;5110956;28;20031;-79
2021/12/26 06:56:06;;;;;;;3.78;2.67;;;23.70;99.90;;;;;;5110732;28;20030;-76
2021/12/26 06:58:33;;;;;;;3.97;2.00;;;23.70;99.90;;;;;;5107833;28;20076;-77
2021/12/26 07:01:00;;;;;;;2.65;1.63;;;23.70;99.90;;;;;;5103137;28;20040;-77
2021/12/26 07:03:28;;;;;;;3.35;1.30;;;23.60;99.90;;;;;;5102378;28;20608;-78
2021/12/26 07:05:55;;;;;;;2.78;1.13;;;23.60;99.90;;;;;;5104270;28;20574;-78
2021/12/26 07:08:23;;;;;;;1.25;0.73;;;23.60;99.90;;;;;;5105624;28;20027;-78
2021/12/26 07:10:51;;;;;;;2.70;0.88;;;23.60;99.90;;;;;;5096418;28;20058;-79
2021/12/26 07:13:18;;;;;;;0.60;0.50;;;23.70;99.90;;;;;;5104590;28;20016;-77
2021/12/26 07:15:45;;;;;;;0.50;0.50;;;23.60;99.90;;;;;;5105090;28;20067;-80
2021/12/26 07:18:13;;;;;;;3.35;0.95;;;23.60;99.90;;;;;;5106993;28;20028;-77
2021/12/26 07:20:40;;;;;;;0.73;0.35;;;23.60;99.90;;;;;;5107959;28;20251;-76
2021/12/26 07:23:08;;;;;;;1.42;0.40;;;23.60;99.90;;;;;;5107719;28;20097;-82
2021/12/26 07:25:35;;;;;;;0.77;0.50;;;23.50;99.90;;;;;;5107941;27;20031;-76
2021/12/26 07:28:05;;;;;;;0.45;0.45;;;23.60;99.90;;;;;;5109666;28;20531;-80
2021/12/26 07:30:33;;;;;;;1.67;0.30;;;23.60;99.90;;;;;;5111272;28;20479;-77
2021/12/26 07:33:00;;;;;;;0.40;0.30;;;23.60;99.90;;;;;;5109652;28;20116;-82
2021/12/26 07:35:28;;;;;;;0.45;0.20;;;23.50;99.90;;;;;;5108674;28;20032;-78
2021/12/26 07:37:55;;;;;;;0.35;0.20;;;23.30;99.90;;;;;;5110410;28;20028;-77
2021/12/26 07:40:24;;;;;;;0.60;0.20;;;23.30;99.90;;;;;;5105699;28;20043;-75
2021/12/26 07:42:51;;;;;;;0.15;0.10;;;23.20;99.90;;;;;;5104426;28;20032;-76
2021/12/26 07:45:19;;;;;;;0.85;0.25;;;23.10;99.90;;;;;;5106326;28;20106;-73
2021/12/26 07:47:46;;;;;;;0.70;0.20;;;23.00;99.90;;;;;;5105995;28;20035;-76
2021/12/26 07:50:13;;;;;;;1.27;0.20;;;22.90;99.90;;;;;;5109203;28;20369;-78
2021/12/26 07:52:43;;;;;;;0.60;0.10;;;22.80;99.90;;;;;;5110709;28;20020;-75
2021/12/26 07:55:13;;;;;;;0.40;0.10;;;22.70;99.90;;;;;;5109013;28;20133;-76
2021/12/26 07:57:48;;;;;;;6.03;0.30;;;22.70;99.90;;;;;;5108602;28;20032;-75
2021/12/26 08:00:17;;;;;;;0.20;0.10;;;22.60;99.90;;;;;;5109919;28;20413;-77
2021/12/26 08:02:46;;;;;;;1.05;0.40;;;22.60;99.90;;;;;;5099582;28;20106;-76
2021/12/26 08:05:17;;;;;;;0.75;0.20;;;22.70;99.90;;;;;;5105431;28;20031;-75
2021/12/26 08:07:46;;;;;;;0.47;0.20;;;22.60;99.90;;;;;;5106283;28;20034;-75
2021/12/26 08:10:13;;;;;;;0.28;0.10;;;22.50;99.90;;;;;;5109379;28;20025;-75
2021/12/26 08:12:41;;;;;;;0.25;0.10;;;22.40;99.90;;;;;;5108273;28;20378;-75
2021/12/26 08:15:09;;;;;;;0.10;0.10;;;22.40;99.90;;;;;;5104602;28;20050;-74
2021/12/26 08:17:38;;;;;;;0.10;0.10;;;22.40;99.90;;;;;;5109386;28;20024;-76
2021/12/26 08:20:07;;;;;;;1.00;0.20;;;22.40;99.90;;;;;;5106131;28;20043;-77
2021/12/26 08:22:34;;;;;;;0.10;0.10;;;22.40;99.90;;;;;;5109739;27;20035;-77
2021/12/26 08:25:02;;;;;;;0.30;0.28;;;22.30;99.90;;;;;;5107743;28;20039;-77
2021/12/26 08:27:32;;;;;;;0.10;0.05;;;22.20;99.90;;;;;;5106160;28;20084;-77
2021/12/26 08:30:00;;;;;;;0.20;0.10;;;22.30;99.90;;;;;;5107894;28;20024;-76
2021/12/26 08:32:30;;;;;;;0.38;0.20;;;22.40;99.90;;;;;;5105964;28;20133;-76
2021/12/26 08:35:00;;;;;;;0.13;0.13;;;22.40;99.90;;;;;;5106697;28;20039;-78
2021/12/26 08:37:27;;;;;;;0.13;0.10;;;22.30;99.90;;;;;;5105517;28;20035;-79
2021/12/26 08:39:55;;;;;;;0.20;0.10;;;22.30;99.90;;;;;;5090678;28;20051;-78
2021/12/26 08:42:24;;;;;;;0.45;0.20;;;22.40;99.90;;;;;;5104991;28;20019;-78
2021/12/26 08:44:52;;;;;;;0.93;0.45;;;22.50;99.90;;;;;;5109023;28;20028;-79
2021/12/26 08:47:20;;;;;;;0.38;0.15;;;22.50;99.90;;;;;;5099885;28;20028;-81
2021/12/26 08:49:47;;;;;;;0.70;0.20;;;22.50;99.90;;;;;;5106024;28;20027;-79
2021/12/26 08:52:15;;;;;;;0.30;0.10;;;22.40;99.90;;;;;;5106919;28;20062;-79
2021/12/26 08:54:43;;;;;;;0.22;0.10;;;22.50;99.90;;;;;;5104436;28;20494;-80
2021/12/26 08:57:11;;;;;;;0.40;0.22;;;22.40;99.90;;;;;;5106032;28;20099;-79
2021/12/26 08:59:40;;;;;;;0.10;0.10;;;22.40;99.90;;;;;;5100225;28;20058;-79
2021/12/26 09:02:08;;;;;;;0.32;0.13;;;22.20;99.90;;;;;;5108031;28;20082;-80
2021/12/26 09:04:40;;;;;;;0.43;0.15;;;22.20;99.90;;;;;;5104028;28;20055;-80
2021/12/26 09:07:09;;;;;;;0.28;0.15;;;22.20;99.90;;;;;;5108187;28;20142;-79
2021/12/26 09:09:37;;;;;;;0.40;0.10;;;22.30;99.90;;;;;;5097703;28;20569;-77
2021/12/26 09:12:05;;;;;;;0.50;0.10;;;22.40;99.90;;;;;;5104422;28;20028;-77
2021/12/26 09:14:32;;;;;;;1.75;0.40;;;22.50;99.90;;;;;;5104658;28;20050;-76
2021/12/26 09:17:01;;;;;;;2.80;1.15;;;22.70;99.90;;;;;;5102419;28;20023;-79
2021/12/26 09:19:29;;;;;;;2.03;0.50;;;22.50;99.90;;;;;;5104559;28;20039;-77
2021/12/26 09:21:58;;;;;;;0.55;0.20;;;22.40;99.90;;;;;;5105366;28;20393;-78
2021/12/26 09:24:26;;;;;;;4.13;0.75;;;22.40;99.90;;;;;;5104081;28;20504;-76
2021/12/26 09:26:53;;;;;;;0.98;0.57;;;22.40;99.90;;;;;;5102951;28;20500;-77
2021/12/26 09:29:21;;;;;;;2.03;0.50;;;22.50;99.90;;;;;;5105699;28;20023;-76
2021/12/26 09:31:50;;;;;;;2.00;0.35;;;22.50;99.90;;;;;;5104471;28;20028;-78
2021/12/26 09:34:18;;;;;;;2.17;0.35;;;22.50;99.90;;;;;;5098354;28;20131;-78
2021/12/26 09:36:45;;;;;;;4.43;0.57;;;22.60;99.90;;;;;;5106737;28;20024;-76
2021/12/26 09:39:13;;;;;;;3.15;0.30;;;22.70;99.90;;;;;;5105691;28;20451;-76
2021/12/26 09:41:41;;;;;;;1.15;0.40;;;22.60;99.90;;;;;;5103869;27;20122;-78
2021/12/26 09:44:09;;;;;;;4.43;0.55;;;22.50;99.90;;;;;;5107476;28;20024;-77
2021/12/26 09:46:37;;;;;;;1.65;0.47;;;22.40;99.90;;;;;;5108648;28;20019;-76
2021/12/26 09:49:05;;;;;;;2.92;0.43;;;22.30;99.90;;;;;;5108683;28;20023;-80
2021/12/26 09:51:35;;;;;;;6.28;0.50;;;22.50;99.90;;;;;;5113158;28;20439;-78
2021/12/26 09:54:05;;;;;;;1.75;0.43;;;22.50;99.90;;;;;;5115247;28;20023;-82
2021/12/26 09:56:33;;;;;;;2.88;0.60;;;22.40;99.90;;;;;;5110729;28;20084;-83
2021/12/26 09:59:17;;;;;;;7.65;1.38;;;22.10;99.90;;;;;;5116515;28;20038;-82
2021/12/26 10:01:49;;;;;;;3.60;0.60;;;22.00;99.90;;;;;;5110170;28;20028;-83
2021/12/26 10:04:26;;;;;;;5.05;0.90;;;21.90;99.90;;;;;;5109112;28;20023;-81
2021/12/26 10:07:09;;;;;;;4.38;0.65;;;21.80;99.90;;;;;;5112902;28;20102;-82
2021/12/26 10:09:48;;;;;;;1.35;0.60;;;21.70;99.90;;;;;;5112173;28;20020;-82
2021/12/26 10:12:19;;;;;;;2.85;0.40;;;21.60;99.90;;;;;;5119432;28;20111;-87
2021/12/26 10:14:52;;;;;;;1.10;0.38;;;21.50;99.90;;;;;;5112154;28;20028;-87
2021/12/26 10:17:26;;;;;;;5.07;0.95;;;21.50;99.90;;;;;;5099888;28;20027;-85
2021/12/26 10:20:14;;;;;;;1.30;0.40;;;21.40;99.90;;;;;;5111927;28;20036;-84
2021/12/26 10:22:41;;;;;;;3.85;0.45;;;21.50;99.90;;;;;;5114416;27;20031;-84
2021/12/26 10:25:11;;;;;;;1.80;0.63;;;21.40;99.90;;;;;;5111472;28;20024;-86
2021/12/26 10:27:41;;;;;;;5.40;0.70;;;21.40;99.90;;;;;;5113283;28;20390;-85
2021/12/26 10:30:22;;;;;;;5.20;0.55;;;21.30;99.90;;;;;;5112552;28;20494;-84
2021/12/26 10:32:57;;;;;;;3.42;0.45;;;21.30;99.90;;;;;;5094369;28;20101;-83
2021/12/26 10:35:24;;;;;;;7.78;0.82;;;21.30;99.90;;;;;;5110776;28;20027;-82
2021/12/26 10:37:53;;;;;;;4.88;0.32;;;21.30;99.90;;;;;;5112984;28;20020;-82
2021/12/26 10:40:25;;;;;;;4.85;0.85;;;21.30;99.90;;;;;;5102070;28;20063;-81
2021/12/26 10:42:57;;;;;;;3.58;0.50;;;21.20;99.90;;;;;;5105835;28;20023;-82
2021/12/26 10:45:28;;;;;;;10.50;1.10;;;21.20;99.90;;;;;;5107258;28;20057;-82
2021/12/26 10:48:00;;;;;;;4.20;0.90;;;21.20;99.90;;;;;;5087111;28;20024;-82
2021/12/26 10:50:37;;;;;;;1.05;0.50;;;21.20;99.90;;;;;;5108850;27;20028;-82
2021/12/26 10:53:12;;;;;;;3.38;0.60;;;21.20;99.90;;;;;;5106786;27;20011;-82
2021/12/26 10:55:41;;;;;;;4.22;0.50;;;21.20;99.90;;;;;;5109541;27;20048;-81
2021/12/26 10:58:14;;;;;;;3.85;0.73;;;21.20;99.90;;;;;;5109672;28;20477;-84
2021/12/26 11:00:46;;;;;;;3.22;1.10;;;21.10;99.90;;;;;;5104232;27;20044;-75
2021/12/26 11:03:22;;;;;;;5.50;0.50;;;21.00;99.90;;;;;;5109473;28;20090;-82
2021/12/26 11:05:50;;;;;;;;;;;21.00;99.90;;;;;;5109333;28;20055;-79
2021/12/26 11:08:30;;;;;;;4.07;0.90;;;20.90;99.90;;;;;;5113571;28;20412;-82
2021/12/26 11:10:59;;;;;;;4.20;0.82;;;20.90;99.90;;;;;;5096607;28;20024;-80
2021/12/26 11:13:32;;;;;;;6.18;1.05;;;20.80;99.90;;;;;;5105691;28;20020;-80
2021/12/26 11:16:04;;;;;;;4.93;1.20;;;20.80;99.90;;;;;;5109821;28;20457;-80
2021/12/26 11:18:31;;;;;;;2.97;1.20;;;20.80;99.90;;;;;;5111392;28;20059;-80
2021/12/26 11:21:02;;;;;;;3.28;0.70;;;20.80;99.90;;;;;;5108512;28;20032;-82
2021/12/26 11:23:33;;;;;;;4.32;0.75;;;20.80;99.90;;;;;;5110761;28;20031;-83
2021/12/26 11:26:03;;;;;;;2.97;1.08;;;20.70;99.90;;;;;;5101982;28;20031;-80
2021/12/26 11:28:39;;;;;;;3.55;0.70;;;20.70;99.90;;;;;;5100993;27;20072;-80
2021/12/26 11:31:09;;;;;;;2.72;1.05;;;20.70;99.90;;;;;;5106879;28;20165;-81
2021/12/26 11:33:37;;;;;;;3.20;1.00;;;20.70;99.90;;;;;;5108963;28;20024;-79
2021/12/26 11:36:09;;;;;;;5.28;1.27;;;20.70;99.90;;;;;;5109024;28;20514;-79
2021/12/26 11:38:38;;;;;;;7.60;1.95;;;20.70;99.90;;;;;;5105766;28;20116;-79
2021/12/26 11:41:20;;;;;;;5.35;1.08;;;20.60;99.90;;;;;;5102845;28;20260;-78
2021/12/26 11:44:01;;;;;;;7.03;0.90;;;20.60;99.90;;;;;;5101489;28;20133;-80
2021/12/26 11:46:34;;;;;;;3.50;1.08;;;20.60;99.90;;;;;;5102357;27;20027;-79
2021/12/26 11:49:37;;;;;;;2.17;1.23;;;20.60;99.90;;;;;;5103306;28;20044;-81
2021/12/26 11:52:31;;;;;;;2.83;0.75;;;20.60;99.90;;;;;;5107228;28;20033;-81
2021/12/26 11:55:28;;;;;;;5.93;1.00;;;20.60;99.90;;;;;;5061243;28;20054;-82
2021/12/26 11:58:17;;;;;;;4.13;1.40;;;20.50;99.90;;;;;;5106372;28;20027;-82
2021/12/26 12:00:51;;;;;;;2.80;0.80;;;20.50;99.90;;;;;;5100449;28;20043;-80
2021/12/26 12:03:23;;;;;;;3.45;1.85;;;20.40;99.90;;;;;;5100036;27;20456;-80
2021/12/26 12:05:52;;;;;;;5.03;1.17;;;20.40;99.90;;;;;;5101685;28;20638;-81
2021/12/26 12:08:32;;;;;;;3.47;1.20;;;20.40;99.90;;;;;;5106930;28;20125;-81
2021/12/26 12:11:03;;;;;;;3.25;1.90;;;20.40;99.90;;;;;;5104566;28;20095;-80
2021/12/26 12:13:53;;;;;;;4.65;1.20;;;20.30;99.90;;;;;;5110424;28;20943;-79
2021/12/26 12:16:24;;;;;;;4.53;1.20;;;20.30;99.90;;;;;;5110974;28;20118;-78
2021/12/26 12:18:54;;;;;;;3.75;1.50;;;20.30;99.90;;;;;;5111278;28;20035;-81
2021/12/26 12:21:50;;;;;;;2.80;1.30;;;20.30;99.90;;;;;;5107501;28;20039;-79
2021/12/26 12:24:21;;;;;;;2.65;1.05;;;20.30;99.90;;;;;;5103968;28;20063;-81
2021/12/26 12:26:51;;;;;;;7.10;2.00;;;20.40;99.90;;;;;;5105394;28;20024;-80
2021/12/26 12:29:32;;;;;;;2.15;1.02;;;20.40;99.90;;;;;;5110277;28;20824;-81
2021/12/26 12:32:08;;;;;;;3.55;1.48;;;20.40;99.90;;;;;;5102211;28;20035;-81
2021/12/26 12:34:57;;;;;;;4.28;2.08;;;20.40;99.90;;;;;;5105018;28;20546;-81
2021/12/26 12:37:41;;;;;;;2.40;1.52;;;20.40;99.90;;;;;;5111583;28;20110;-82
2021/12/26 12:40:14;;;;;;;4.47;1.33;;;20.30;99.90;;;;;;5107293;28;20040;-82
2021/12/26 12:42:44;;;;;;;2.45;1.60;;;20.30;99.90;;;;;;5109220;28;20437;-81
2021/12/26 12:45:12;;;;;;;5.32;1.90;;;20.30;99.90;;;;;;5105312;28;20490;-81
2021/12/26 12:47:41;;;;;;;2.75;1.67;;;20.20;99.90;;;;;;5111669;28;20099;-81
2021/12/26 12:50:08;;;;;;;3.33;2.00;;;20.20;99.90;;;;;;5109696;28;20094;-80
2021/12/26 12:52:59;;;;;;;4.70;1.92;;;20.20;99.90;;;;;;5107478;28;20032;-80
2021/12/26 12:55:50;;;;;;;3.38;1.80;;;20.20;99.90;;;;;;5108269;28;20088;-80
2021/12/26 12:58:31;;;;;;;2.60;1.52;;;20.20;99.90;;;;;;5106238;28;20040;-81
2021/12/26 13:01:03;;;;;;;2.30;1.35;;;20.20;99.90;;;;;;5108964;28;20490;-81
2021/12/26 13:03:34;;;;;;;3.40;1.42;;;20.20;99.90;;;;;;5092932;28;20024;-81
2021/12/26 13:06:10;;;;;;;2.47;1.67;;;20.20;99.90;;;;;;5110063;28;20030;-82
2021/12/26 13:08:37;;;;;;;3.03;1.35;;;20.10;99.90;;;;;;5112429;28;20031;-81